Terminal Aerodrome Forecast
Issued by NWS

Home | Current Version | Previous Version | Text Only | Print | Product List | Glossary Off
Versions: 1 2 3 4 5 6 7 8 9 10 11 12 13 14 15 16 17 18 19 20 21 22 23 24 25 26 27 28

000
FTUS43 KABR 302300
TAFATY
TAF
KATY 302331Z 3100/3124 21009KT P6SM SCT250
     FM310500 33008KT P6SM BKN250
     FM310900 01014KT P6SM OVC006
     FM311600 03017KT P6SM OVC010=

USA.gov is the U.S. government's official web portal to all federal, state and local government web resources and services.